createdAt,value
2022-12-26T00:00:02.712Z,997.42
2022-12-26T00:01:02.673Z,997.32
2022-12-26T00:02:02.677Z,997.40
2022-12-26T00:03:02.739Z,997.37
2022-12-26T00:04:02.807Z,997.44
2022-12-26T00:05:02.616Z,997.40
2022-12-26T00:06:02.597Z,997.32
2022-12-26T00:07:02.606Z,997.34
2022-12-26T00:08:02.598Z,997.35
2022-12-26T00:09:02.633Z,997.40
2022-12-26T00:10:02.557Z,997.38
2022-12-26T00:11:02.530Z,997.30
2022-12-26T00:12:02.563Z,997.33
2022-12-26T00:13:40.032Z,997.31
2022-12-26T00:14:03.550Z,997.28
2022-12-26T00:15:02.507Z,997.23
2022-12-26T00:16:02.542Z,997.28
2022-12-26T00:17:02.494Z,997.24
2022-12-26T00:18:02.542Z,997.29
2022-12-26T00:19:02.491Z,997.36
2022-12-26T00:20:02.441Z,997.37
2022-12-26T00:21:02.448Z,997.34
2022-12-26T00:22:02.432Z,997.28
2022-12-26T00:23:02.465Z,997.39
2022-12-26T00:24:02.397Z,997.44
2022-12-26T00:25:02.374Z,997.42
2022-12-26T00:26:02.381Z,997.33
2022-12-26T00:27:02.360Z,997.30
2022-12-26T00:28:02.400Z,997.30
2022-12-26T00:29:02.415Z,997.33
2022-12-26T00:30:02.397Z,997.43
2022-12-26T00:31:02.364Z,997.41
2022-12-26T00:32:02.385Z,997.33
2022-12-26T00:33:02.282Z,997.31
2022-12-26T00:34:02.341Z,997.26
2022-12-26T00:35:02.329Z,997.22
2022-12-26T00:36:02.269Z,997.30
2022-12-26T00:37:02.259Z,997.26
2022-12-26T00:38:02.258Z,997.22
2022-12-26T00:39:02.262Z,997.24
2022-12-26T00:40:02.229Z,997.23
2022-12-26T00:41:02.237Z,997.21
2022-12-26T00:42:02.208Z,997.15
2022-12-26T00:43:02.234Z,997.15
2022-12-26T00:44:02.172Z,997.16
2022-12-26T00:45:02.167Z,997.19
2022-12-26T00:46:02.140Z,997.24
2022-12-26T00:47:02.178Z,997.19
2022-12-26T00:48:02.120Z,997.15
2022-12-26T00:49:02.142Z,997.18
2022-12-26T00:50:13.543Z,997.18
2022-12-26T00:51:03.081Z,997.22
2022-12-26T00:52:02.130Z,997.25
2022-12-26T00:53:02.103Z,997.20
2022-12-26T00:54:02.077Z,997.17
2022-12-26T00:55:02.060Z,997.08
2022-12-26T00:56:02.060Z,997.15
2022-12-26T00:57:01.996Z,997.13
2022-12-26T00:58:02.052Z,997.17
2022-12-26T00:59:02.009Z,997.09
2022-12-26T01:00:02.011Z,997.12
2022-12-26T01:01:02.023Z,997.14
2022-12-26T01:02:02.164Z,997.18
2022-12-26T01:03:02.097Z,997.14
2022-12-26T01:04:01.950Z,997.19
2022-12-26T01:05:01.924Z,997.25
2022-12-26T01:06:01.929Z,997.29
2022-12-26T01:07:01.882Z,997.30
2022-12-26T01:08:21.755Z,997.38
2022-12-26T01:09:02.854Z,997.34
2022-12-26T01:10:01.883Z,997.34
2022-12-26T01:11:01.886Z,997.31
2022-12-26T01:12:01.825Z,997.42
2022-12-26T01:13:01.862Z,997.53
2022-12-26T01:14:01.856Z,997.51
2022-12-26T01:15:01.792Z,997.50
2022-12-26T01:16:01.884Z,997.54
2022-12-26T01:17:01.828Z,997.61
2022-12-26T01:18:01.762Z,997.61
2022-12-26T01:19:01.754Z,997.53
2022-12-26T01:20:01.789Z,997.55
2022-12-26T01:21:01.771Z,997.64
2022-12-26T01:22:01.708Z,997.63
2022-12-26T01:23:01.713Z,997.62
2022-12-26T01:24:01.722Z,997.60
2022-12-26T01:25:01.736Z,997.67
2022-12-26T01:26:15.607Z,997.57
2022-12-26T01:27:02.639Z,997.63
2022-12-26T01:28:01.706Z,997.53
2022-12-26T01:29:01.646Z,997.49
2022-12-26T01:30:01.672Z,997.51
2022-12-26T01:31:01.651Z,997.56
2022-12-26T01:32:01.692Z,997.61
2022-12-26T01:33:01.598Z,997.61
2022-12-26T01:34:01.597Z,997.60
2022-12-26T01:35:01.578Z,997.61
2022-12-26T01:36:01.582Z,997.57
2022-12-26T01:37:01.546Z,997.53
2022-12-26T01:38:01.533Z,997.57
2022-12-26T01:39:01.534Z,997.72
2022-12-26T01:40:01.509Z,997.76
2022-12-26T01:41:01.519Z,997.76
2022-12-26T01:42:01.533Z,997.78
2022-12-26T01:43:01.455Z,997.78
2022-12-26T01:44:01.470Z,997.81
2022-12-26T01:45:01.438Z,997.77
2022-12-26T01:46:01.512Z,997.88
2022-12-26T01:47:01.474Z,997.94
2022-12-26T01:48:01.434Z,997.87
2022-12-26T01:49:01.415Z,997.92
2022-12-26T01:50:01.414Z,997.90
2022-12-26T01:51:01.385Z,997.81
2022-12-26T01:52:01.397Z,997.76
2022-12-26T01:53:01.380Z,997.74
2022-12-26T01:54:39.957Z,997.86
2022-12-26T01:55:02.315Z,997.84
2022-12-26T01:56:01.319Z,997.93
2022-12-26T01:57:01.328Z,997.94
2022-12-26T01:58:01.297Z,997.87
2022-12-26T01:59:01.276Z,997.81
2022-12-26T02:00:01.347Z,997.85
2022-12-26T02:01:01.331Z,997.79
2022-12-26T02:02:01.551Z,997.77
2022-12-26T02:03:01.301Z,997.77
2022-12-26T02:04:01.279Z,997.80
2022-12-26T02:05:01.217Z,997.79
2022-12-26T02:06:01.264Z,997.78
2022-12-26T02:07:01.215Z,997.91
2022-12-26T02:08:01.166Z,997.90
2022-12-26T02:09:01.202Z,997.91
2022-12-26T02:10:01.188Z,997.84
2022-12-26T02:11:01.154Z,997.88
2022-12-26T02:12:35.176Z,997.93
2022-12-26T02:13:02.173Z,997.88
2022-12-26T02:14:01.143Z,997.89
2022-12-26T02:15:01.125Z,997.79
2022-12-26T02:16:01.089Z,997.73
2022-12-26T02:17:01.150Z,997.79
2022-12-26T02:18:01.100Z,997.73
2022-12-26T02:19:01.081Z,997.81
2022-12-26T02:20:01.078Z,997.92
2022-12-26T02:21:01.078Z,997.95
2022-12-26T02:22:01.044Z,998.00
2022-12-26T02:23:01.041Z,997.95
2022-12-26T02:24:00.989Z,997.97
2022-12-26T02:25:01.032Z,998.10
2022-12-26T02:26:00.960Z,998.05
2022-12-26T02:27:00.989Z,998.06
2022-12-26T02:28:00.985Z,998.06
2022-12-26T02:29:00.958Z,998.06
2022-12-26T02:30:00.940Z,998.09
2022-12-26T02:31:00.940Z,998.02
2022-12-26T02:32:00.989Z,998.01
2022-12-26T02:33:00.893Z,997.92
2022-12-26T02:34:00.926Z,997.93
2022-12-26T02:35:00.893Z,997.97
2022-12-26T02:36:00.876Z,997.94
2022-12-26T02:37:00.871Z,997.97
2022-12-26T02:38:00.862Z,997.93
2022-12-26T02:39:00.855Z,997.89
2022-12-26T02:40:00.835Z,997.83
2022-12-26T02:41:00.832Z,997.91
2022-12-26T02:42:00.784Z,997.93
2022-12-26T02:43:00.804Z,997.99
2022-12-26T02:44:00.787Z,998.01
2022-12-26T02:45:00.812Z,997.98
2022-12-26T02:46:00.845Z,998.01
2022-12-26T02:47:00.739Z,998.00
2022-12-26T02:48:00.737Z,997.93
2022-12-26T02:49:00.710Z,997.97
2022-12-26T02:50:00.719Z,997.99
2022-12-26T02:51:00.745Z,998.05
2022-12-26T02:52:00.666Z,998.14
2022-12-26T02:53:00.699Z,998.17
2022-12-26T02:54:00.661Z,998.16
2022-12-26T02:55:00.800Z,998.12
2022-12-26T02:56:00.657Z,998.06
2022-12-26T02:57:00.666Z,998.02
2022-12-26T02:58:00.603Z,997.93
2022-12-26T02:59:00.599Z,997.93
2022-12-26T03:00:00.613Z,997.96
2022-12-26T03:01:00.692Z,998.04
2022-12-26T03:02:00.702Z,997.99
2022-12-26T03:03:00.602Z,997.98
2022-12-26T03:04:00.537Z,998.00
2022-12-26T03:05:00.532Z,997.93
2022-12-26T03:06:00.575Z,998.02
2022-12-26T03:07:00.553Z,998.08
2022-12-26T03:08:00.509Z,998.08
2022-12-26T03:09:00.495Z,998.05
2022-12-26T03:10:00.461Z,998.05
2022-12-26T03:11:00.499Z,998.05
2022-12-26T03:12:00.523Z,998.03
2022-12-26T03:13:00.435Z,997.99
2022-12-26T03:14:00.459Z,998.02
2022-12-26T03:15:00.443Z,998.06
2022-12-26T03:16:00.444Z,998.08
2022-12-26T03:17:00.421Z,998.02
2022-12-26T03:18:00.405Z,998.06
2022-12-26T03:19:00.889Z,998.16
2022-12-26T03:20:00.456Z,998.11
2022-12-26T03:21:00.396Z,998.15
2022-12-26T03:22:00.340Z,998.16
2022-12-26T03:23:00.358Z,998.17
2022-12-26T03:24:00.347Z,998.17
2022-12-26T03:25:00.364Z,998.10
2022-12-26T03:26:00.295Z,998.21
2022-12-26T03:27:00.339Z,998.17
2022-12-26T03:28:00.320Z,998.06
2022-12-26T03:29:00.284Z,998.07
2022-12-26T03:30:00.242Z,998.19
2022-12-26T03:31:00.358Z,998.17
2022-12-26T03:32:00.211Z,998.14
2022-12-26T03:33:00.268Z,998.15
2022-12-26T03:34:00.189Z,998.19
2022-12-26T03:35:00.186Z,998.08
2022-12-26T03:36:00.170Z,998.14
2022-12-26T03:37:00.177Z,998.13
2022-12-26T03:38:00.148Z,998.13
2022-12-26T03:39:00.208Z,998.18
2022-12-26T03:40:00.162Z,998.08
2022-12-26T03:41:00.147Z,998.14
2022-12-26T03:42:00.128Z,998.12
2022-12-26T03:43:00.151Z,998.13
2022-12-26T03:44:00.151Z,998.21
2022-12-26T03:45:00.190Z,998.25
2022-12-26T03:46:00.152Z,998.26
2022-12-26T03:47:00.116Z,998.37
2022-12-26T03:48:00.090Z,998.32
2022-12-26T03:49:00.083Z,998.39
2022-12-26T03:50:00.126Z,998.26
2022-12-26T03:51:00.043Z,998.36
2022-12-26T03:52:00.092Z,998.23
2022-12-26T03:53:00.055Z,998.37
2022-12-26T03:54:00.007Z,998.25
2022-12-26T03:54:59.997Z,998.34
2022-12-26T03:56:00.043Z,998.31
2022-12-26T03:56:59.944Z,998.29
2022-12-26T03:57:59.956Z,998.25
2022-12-26T03:58:59.946Z,998.21
2022-12-26T04:00:00.032Z,998.24
2022-12-26T04:00:59.998Z,998.21
2022-12-26T04:01:59.975Z,998.28
2022-12-26T04:02:59.878Z,998.28
2022-12-26T04:03:59.963Z,998.32
2022-12-26T04:04:59.887Z,998.24
2022-12-26T04:05:59.881Z,998.23
2022-12-26T04:06:59.835Z,998.24
2022-12-26T04:07:59.809Z,998.27
2022-12-26T04:08:59.833Z,998.23
2022-12-26T04:09:59.813Z,998.32
2022-12-26T04:10:59.788Z,998.32
2022-12-26T04:12:00.458Z,998.42
2022-12-26T04:12:59.756Z,998.38
2022-12-26T04:13:59.767Z,998.39
2022-12-26T04:14:59.787Z,998.46
2022-12-26T04:15:59.760Z,998.39
2022-12-26T04:16:59.719Z,998.40
2022-12-26T04:17:59.707Z,998.47
2022-12-26T04:18:59.754Z,998.46
2022-12-26T04:19:59.737Z,998.48
2022-12-26T04:20:59.669Z,998.44
2022-12-26T04:21:59.677Z,998.43
2022-12-26T04:22:59.649Z,998.42
2022-12-26T04:23:59.628Z,998.40
2022-12-26T04:24:59.649Z,998.44
2022-12-26T04:25:59.665Z,998.46
2022-12-26T04:26:59.638Z,998.49
2022-12-26T04:27:59.590Z,998.57
2022-12-26T04:28:59.609Z,998.65
2022-12-26T04:29:59.566Z,998.66
2022-12-26T04:30:59.777Z,998.71
2022-12-26T04:31:59.562Z,998.82
2022-12-26T04:32:59.562Z,998.83
2022-12-26T04:33:59.513Z,998.81
2022-12-26T04:34:59.515Z,998.91
2022-12-26T04:35:59.539Z,998.81
2022-12-26T04:36:59.517Z,998.72
2022-12-26T04:37:59.466Z,998.73
2022-12-26T04:38:59.490Z,998.75
2022-12-26T04:39:59.470Z,998.68
2022-12-26T04:40:59.503Z,998.62
2022-12-26T04:41:59.448Z,998.55
2022-12-26T04:42:59.465Z,998.48
2022-12-26T04:43:59.430Z,998.57
2022-12-26T04:44:59.428Z,998.59
2022-12-26T04:45:59.409Z,998.60
2022-12-26T04:46:59.481Z,998.59
2022-12-26T04:47:59.427Z,998.59
2022-12-26T04:48:59.365Z,998.61
2022-12-26T04:49:59.366Z,998.61
2022-12-26T04:50:59.336Z,998.62
2022-12-26T04:51:59.333Z,998.60
2022-12-26T04:52:59.470Z,998.60
2022-12-26T04:53:59.327Z,998.63
2022-12-26T04:54:59.314Z,998.67
2022-12-26T04:55:59.294Z,998.69
2022-12-26T04:56:59.275Z,998.68
2022-12-26T04:57:59.259Z,998.71
2022-12-26T04:58:59.284Z,998.73
2022-12-26T04:59:59.247Z,998.72
2022-12-26T05:00:59.232Z,998.73
2022-12-26T05:02:07.407Z,998.77
2022-12-26T05:02:59.422Z,998.76
2022-12-26T05:03:59.276Z,998.80
2022-12-26T05:04:59.207Z,998.77
2022-12-26T05:05:59.195Z,998.79
2022-12-26T05:06:59.301Z,998.74
2022-12-26T05:07:59.169Z,998.79
2022-12-26T05:08:59.144Z,998.72
2022-12-26T05:09:59.148Z,998.70
2022-12-26T05:10:59.092Z,998.71
2022-12-26T05:11:59.148Z,998.77
2022-12-26T05:12:59.099Z,998.75
2022-12-26T05:13:59.108Z,998.79
2022-12-26T05:14:59.084Z,998.75
2022-12-26T05:15:59.076Z,998.75
2022-12-26T05:16:59.028Z,998.68
2022-12-26T05:17:59.058Z,998.74
2022-12-26T05:18:59.109Z,998.74
2022-12-26T05:19:59.031Z,998.72
2022-12-26T05:20:59.063Z,998.68
2022-12-26T05:21:59.019Z,998.72
2022-12-26T05:22:58.986Z,998.70
2022-12-26T05:23:58.957Z,998.78
2022-12-26T05:24:58.934Z,998.77
2022-12-26T05:25:58.971Z,998.71
2022-12-26T05:26:58.936Z,998.75
2022-12-26T05:27:58.904Z,998.77
2022-12-26T05:28:58.911Z,998.79
2022-12-26T05:29:58.916Z,998.78
2022-12-26T05:30:58.962Z,998.80
2022-12-26T05:31:59.045Z,998.75
2022-12-26T05:32:58.878Z,998.73
2022-12-26T05:33:58.893Z,998.76
2022-12-26T05:34:58.817Z,998.74
2022-12-26T05:35:58.820Z,998.72
2022-12-26T05:36:58.858Z,998.78
2022-12-26T05:37:58.798Z,998.77
2022-12-26T05:38:58.797Z,998.80
2022-12-26T05:39:58.768Z,998.77
2022-12-26T05:40:58.751Z,998.82
2022-12-26T05:41:58.825Z,998.75
2022-12-26T05:42:58.726Z,998.73
2022-12-26T05:43:58.736Z,998.72
2022-12-26T05:44:58.713Z,998.78
2022-12-26T05:45:58.769Z,998.76
2022-12-26T05:46:58.759Z,998.63
2022-12-26T05:47:58.684Z,998.75
2022-12-26T05:48:58.736Z,998.80
2022-12-26T05:49:58.684Z,998.81
2022-12-26T05:50:58.658Z,998.81
2022-12-26T05:51:58.630Z,998.88
2022-12-26T05:52:58.607Z,998.84
2022-12-26T05:53:58.623Z,998.82
2022-12-26T05:54:58.792Z,998.80
2022-12-26T05:55:58.591Z,998.83
2022-12-26T05:56:58.595Z,998.89
2022-12-26T05:57:58.596Z,998.87
2022-12-26T05:58:58.576Z,998.98
2022-12-26T05:59:58.571Z,998.95
2022-12-26T06:00:58.556Z,998.95
2022-12-26T06:01:58.687Z,998.97
2022-12-26T06:02:58.592Z,998.88
2022-12-26T06:03:58.621Z,998.90
2022-12-26T06:04:58.534Z,998.94
2022-12-26T06:05:58.509Z,998.94
2022-12-26T06:06:58.566Z,999.01
2022-12-26T06:07:58.488Z,998.98
2022-12-26T06:08:58.473Z,998.96
2022-12-26T06:09:58.453Z,998.93
2022-12-26T06:10:58.435Z,998.94
2022-12-26T06:11:58.423Z,998.91
2022-12-26T06:12:58.384Z,998.90
2022-12-26T06:13:58.398Z,998.87
2022-12-26T06:14:58.357Z,998.83
2022-12-26T06:15:58.487Z,998.76
2022-12-26T06:16:58.385Z,998.73
2022-12-26T06:17:58.363Z,998.78
2022-12-26T06:18:58.343Z,998.70
2022-12-26T06:19:58.344Z,998.65
2022-12-26T06:20:58.317Z,998.60
2022-12-26T06:21:58.344Z,998.62
2022-12-26T06:22:58.296Z,998.68
2022-12-26T06:23:58.268Z,998.62
2022-12-26T06:24:58.293Z,998.63
2022-12-26T06:25:58.258Z,998.62
2022-12-26T06:26:58.275Z,998.67
2022-12-26T06:27:58.255Z,998.68
2022-12-26T06:28:58.226Z,998.66
2022-12-26T06:29:58.208Z,998.70
2022-12-26T06:30:58.212Z,998.68
2022-12-26T06:31:58.306Z,998.59
2022-12-26T06:32:58.245Z,998.58
2022-12-26T06:33:58.275Z,998.59
2022-12-26T06:34:58.156Z,998.67
2022-12-26T06:35:58.139Z,998.71
2022-12-26T06:36:58.117Z,998.69
2022-12-26T06:37:58.221Z,998.71
2022-12-26T06:38:58.117Z,998.73
2022-12-26T06:39:58.126Z,998.78
2022-12-26T06:40:58.100Z,998.75
2022-12-26T06:41:58.072Z,998.79
2022-12-26T06:42:58.102Z,998.76
2022-12-26T06:43:58.044Z,998.73
2022-12-26T06:44:58.046Z,998.68
2022-12-26T06:45:58.022Z,998.75
2022-12-26T06:46:58.087Z,998.75
2022-12-26T06:47:58.045Z,998.67
2022-12-26T06:48:58.001Z,998.72
2022-12-26T06:49:57.983Z,998.70
2022-12-26T06:50:57.945Z,998.69
2022-12-26T06:51:57.945Z,998.68
2022-12-26T06:52:57.993Z,998.65
2022-12-26T06:53:57.972Z,998.69
2022-12-26T06:54:57.923Z,998.74
2022-12-26T06:55:57.907Z,998.70
2022-12-26T06:56:57.876Z,998.72
2022-12-26T06:57:57.908Z,998.77
2022-12-26T06:58:58.103Z,998.86
2022-12-26T06:59:57.864Z,998.87
2022-12-26T07:00:57.908Z,998.89
2022-12-26T07:01:57.936Z,998.87
2022-12-26T07:02:57.911Z,998.85
2022-12-26T07:03:57.818Z,998.84
2022-12-26T07:04:57.823Z,998.89
2022-12-26T07:05:57.805Z,998.86
2022-12-26T07:06:57.883Z,998.89
2022-12-26T07:07:57.777Z,998.89
2022-12-26T07:08:57.774Z,998.88
2022-12-26T07:09:57.756Z,998.88
2022-12-26T07:10:57.719Z,998.87
2022-12-26T07:11:57.750Z,998.80
2022-12-26T07:12:57.698Z,998.78
2022-12-26T07:13:57.740Z,998.83
2022-12-26T07:15:01.580Z,998.86
2022-12-26T07:15:57.759Z,998.88
2022-12-26T07:16:57.753Z,998.97
2022-12-26T07:17:57.679Z,999.08
2022-12-26T07:18:57.654Z,999.14
2022-12-26T07:19:57.831Z,999.24
2022-12-26T07:20:57.626Z,999.21
2022-12-26T07:21:57.791Z,999.15
2022-12-26T07:22:57.579Z,999.18
2022-12-26T07:23:57.590Z,999.19
2022-12-26T07:24:57.582Z,999.19
2022-12-26T07:25:57.588Z,999.30
2022-12-26T07:26:57.573Z,999.29
2022-12-26T07:27:57.703Z,999.41
2022-12-26T07:28:57.548Z,999.32
2022-12-26T07:29:57.539Z,999.43
2022-12-26T07:30:57.510Z,999.45
2022-12-26T07:31:57.598Z,999.48
2022-12-26T07:32:57.466Z,999.37
2022-12-26T07:33:57.505Z,999.39
2022-12-26T07:34:57.445Z,999.32
2022-12-26T07:35:57.471Z,999.25
2022-12-26T07:36:57.422Z,999.29
2022-12-26T07:37:57.450Z,999.26
2022-12-26T07:38:57.473Z,999.35
2022-12-26T07:39:59.316Z,999.38
2022-12-26T07:40:57.401Z,999.41
2022-12-26T07:41:57.413Z,999.43
2022-12-26T07:42:57.371Z,999.47
2022-12-26T07:43:57.376Z,999.41
2022-12-26T07:44:57.331Z,999.39
2022-12-26T07:45:57.362Z,999.36
2022-12-26T07:46:57.307Z,999.34
2022-12-26T07:47:57.333Z,999.28
2022-12-26T07:48:57.383Z,999.36
2022-12-26T07:49:57.288Z,999.45
2022-12-26T07:50:57.258Z,999.45
2022-12-26T07:51:57.281Z,999.53
2022-12-26T07:52:57.283Z,999.60
2022-12-26T07:53:57.244Z,999.58
2022-12-26T07:54:57.268Z,999.57
2022-12-26T07:55:57.219Z,999.50
2022-12-26T07:57:14.967Z,999.51
2022-12-26T07:57:58.232Z,999.53
2022-12-26T07:58:57.177Z,999.65
2022-12-26T07:59:57.207Z,999.63
2022-12-26T08:00:57.237Z,999.58
2022-12-26T08:01:57.332Z,999.59
2022-12-26T08:03:02.792Z,999.58
2022-12-26T08:03:58.303Z,999.60
2022-12-26T08:04:57.146Z,999.60
2022-12-26T08:05:57.132Z,999.61
2022-12-26T08:06:57.114Z,999.56
2022-12-26T08:07:57.151Z,999.54
2022-12-26T08:08:57.075Z,999.58
2022-12-26T08:09:57.071Z,999.59
2022-12-26T08:10:57.078Z,999.53
2022-12-26T08:11:57.039Z,999.64
2022-12-26T08:12:57.038Z,999.59
2022-12-26T08:13:57.039Z,999.54
2022-12-26T08:14:57.018Z,999.66
2022-12-26T08:15:57.041Z,999.69
2022-12-26T08:16:57.058Z,999.66
2022-12-26T08:17:56.962Z,999.70
2022-12-26T08:18:56.983Z,999.75
2022-12-26T08:19:56.971Z,999.80
2022-12-26T08:20:56.933Z,999.78
2022-12-26T08:21:56.923Z,999.73
2022-12-26T08:23:56.924Z,999.83
2022-12-26T08:24:56.902Z,999.80
2022-12-26T08:25:56.901Z,999.72
2022-12-26T08:26:56.856Z,999.85
2022-12-26T08:27:56.882Z,999.83
2022-12-26T08:28:56.885Z,999.71
2022-12-26T08:29:57.024Z,999.74
2022-12-26T08:30:56.831Z,999.73
2022-12-26T08:31:56.841Z,999.85
2022-12-26T08:32:56.814Z,999.72
2022-12-26T08:33:56.883Z,999.71
2022-12-26T08:34:56.784Z,999.69
2022-12-26T08:35:56.784Z,999.73
2022-12-26T08:36:56.748Z,999.76
2022-12-26T08:37:56.777Z,999.79
2022-12-26T08:38:56.717Z,999.74
2022-12-26T08:39:56.814Z,999.79
2022-12-26T08:40:56.698Z,999.79
2022-12-26T08:41:56.697Z,999.76
2022-12-26T08:43:21.489Z,999.74
2022-12-26T08:44:57.755Z,999.77
2022-12-26T08:45:56.682Z,999.77
2022-12-26T08:46:56.655Z,999.75
2022-12-26T08:47:56.647Z,999.85
2022-12-26T08:48:56.609Z,999.85
2022-12-26T08:49:58.290Z,999.88
2022-12-26T08:50:56.607Z,999.91
2022-12-26T08:51:56.624Z,999.86
2022-12-26T08:52:56.562Z,999.95
2022-12-26T08:53:56.565Z,999.91
2022-12-26T08:54:58.236Z,999.86
2022-12-26T08:55:56.538Z,999.94
2022-12-26T08:56:56.560Z,999.95
2022-12-26T08:57:56.512Z,999.97
2022-12-26T08:58:56.518Z,999.91
2022-12-26T08:59:56.518Z,999.97
2022-12-26T09:00:56.560Z,1000.06
2022-12-26T09:01:56.795Z,999.92
2022-12-26T09:02:56.581Z,999.97
2022-12-26T09:03:56.444Z,999.91
2022-12-26T09:04:56.429Z,1000.01
2022-12-26T09:05:57.075Z,1000.02
2022-12-26T09:06:56.432Z,999.94
2022-12-26T09:07:56.433Z,1000.01
2022-12-26T09:08:56.413Z,1000.07
2022-12-26T09:09:56.402Z,1000.10
2022-12-26T09:10:56.381Z,1000.04
2022-12-26T09:11:56.382Z,1000.11
2022-12-26T09:12:56.517Z,1000.12
2022-12-26T09:13:56.427Z,1000.16
2022-12-26T09:14:56.362Z,1000.30
2022-12-26T09:15:56.327Z,1000.18
2022-12-26T09:16:56.356Z,1000.15
2022-12-26T09:17:56.312Z,1000.21
2022-12-26T09:18:56.389Z,1000.24
2022-12-26T09:19:56.265Z,1000.24
2022-12-26T09:20:56.262Z,1000.16
2022-12-26T09:21:56.253Z,1000.20
2022-12-26T09:22:56.239Z,1000.13
2022-12-26T09:23:56.233Z,1000.11
2022-12-26T09:24:56.299Z,1000.16
2022-12-26T09:25:56.187Z,1000.11
2022-12-26T09:26:56.215Z,1000.12
2022-12-26T09:27:59.322Z,1000.12
2022-12-26T09:28:56.177Z,1000.09
2022-12-26T09:29:56.159Z,1000.24
2022-12-26T09:30:56.384Z,1000.19
2022-12-26T09:31:56.142Z,1000.24
2022-12-26T09:32:56.149Z,1000.26
2022-12-26T09:33:56.100Z,1000.28
2022-12-26T09:34:56.102Z,1000.26
2022-12-26T09:36:03.054Z,1000.18
2022-12-26T09:36:57.099Z,1000.28
2022-12-26T09:37:56.050Z,1000.35
2022-12-26T09:38:56.090Z,1000.38
2022-12-26T09:39:56.057Z,1000.33
2022-12-26T09:40:56.380Z,1000.34
2022-12-26T09:41:56.030Z,1000.40
2022-12-26T09:42:56.003Z,1000.47
2022-12-26T09:43:56.009Z,1000.43
2022-12-26T09:44:56.016Z,1000.51
2022-12-26T09:45:56.034Z,1000.57
2022-12-26T09:46:55.996Z,1000.54
2022-12-26T09:47:55.995Z,1000.54
2022-12-26T09:48:55.974Z,1000.54
2022-12-26T09:49:55.944Z,1000.54
2022-12-26T09:50:55.943Z,1000.52
2022-12-26T09:51:56.276Z,1000.44
2022-12-26T09:52:55.894Z,1000.44
2022-12-26T09:53:55.903Z,1000.53
2022-12-26T09:54:55.874Z,1000.57
2022-12-26T09:55:55.850Z,1000.61
2022-12-26T09:57:05.338Z,1000.54
2022-12-26T09:57:56.958Z,1000.63
2022-12-26T09:58:55.825Z,1000.48
2022-12-26T09:59:55.834Z,1000.58
2022-12-26T10:00:55.835Z,1000.59
2022-12-26T10:01:55.824Z,1000.57
2022-12-26T10:02:55.786Z,1000.60
2022-12-26T10:03:55.815Z,1000.58
2022-12-26T10:04:55.779Z,1000.63
2022-12-26T10:05:55.757Z,1000.54
2022-12-26T10:06:55.736Z,1000.63
2022-12-26T10:07:55.733Z,1000.65
2022-12-26T10:08:55.754Z,1000.63
2022-12-26T10:09:55.690Z,1000.62
2022-12-26T10:10:55.715Z,1000.67
2022-12-26T10:11:55.687Z,1000.60
2022-12-26T10:12:55.740Z,1000.66
2022-12-26T10:13:55.641Z,1000.67
2022-12-26T10:14:55.659Z,1000.64
2022-12-26T10:15:55.654Z,1000.70
2022-12-26T10:16:55.645Z,1000.67
2022-12-26T10:17:55.631Z,1000.74
2022-12-26T10:18:55.616Z,1000.71
2022-12-26T10:19:55.590Z,1000.70
2022-12-26T10:20:55.570Z,1000.60
2022-12-26T10:21:55.542Z,1000.63
2022-12-26T10:22:55.751Z,1000.67
2022-12-26T10:23:55.561Z,1000.61
2022-12-26T10:24:55.563Z,1000.64
2022-12-26T10:25:55.509Z,1000.76
2022-12-26T10:26:55.529Z,1000.61
2022-12-26T10:27:55.531Z,1000.64
2022-12-26T10:28:55.482Z,1000.58
2022-12-26T10:29:55.490Z,1000.60
2022-12-26T10:30:55.527Z,1000.60
2022-12-26T10:31:55.449Z,1000.64
2022-12-26T10:32:55.498Z,1000.57
2022-12-26T10:33:55.428Z,1000.56
2022-12-26T10:34:55.414Z,1000.55
2022-12-26T10:35:55.404Z,1000.46
2022-12-26T10:36:55.440Z,1000.52
2022-12-26T10:37:55.387Z,1000.60
2022-12-26T10:38:55.376Z,1000.50
2022-12-26T10:39:55.344Z,1000.58
2022-12-26T10:40:55.335Z,1000.55
2022-12-26T10:41:55.321Z,1000.58
2022-12-26T10:42:57.002Z,1000.60
2022-12-26T10:43:55.313Z,1000.50
2022-12-26T10:44:55.303Z,1000.56
2022-12-26T10:45:55.309Z,1000.45
2022-12-26T10:46:55.308Z,1000.43
2022-12-26T10:47:55.237Z,1000.48
2022-12-26T10:48:55.285Z,1000.46
2022-12-26T10:49:55.243Z,1000.48
2022-12-26T10:50:55.247Z,1000.56
2022-12-26T10:51:55.211Z,1000.45
2022-12-26T10:52:55.249Z,1000.44
2022-12-26T10:53:55.171Z,1000.45
2022-12-26T10:55:28.942Z,1000.40
2022-12-26T10:55:56.148Z,1000.49
2022-12-26T10:56:55.207Z,1000.48
2022-12-26T10:57:55.174Z,1000.42
2022-12-26T10:58:55.154Z,1000.49
2022-12-26T10:59:55.161Z,1000.43
2022-12-26T11:00:55.104Z,1000.41
2022-12-26T11:03:05.596Z,1000.49
2022-12-26T11:04:05.301Z,1000.38
2022-12-26T11:05:21.905Z,1000.36
2022-12-26T11:06:08.040Z,1000.39
2022-12-26T11:07:05.221Z,1000.44
2022-12-26T11:08:05.304Z,1000.35
2022-12-26T11:09:05.218Z,1000.37
2022-12-26T11:10:05.198Z,1000.27
2022-12-26T11:11:05.339Z,1000.40
2022-12-26T11:12:05.180Z,1000.35
2022-12-26T11:13:05.145Z,1000.37
2022-12-26T11:14:05.144Z,1000.35
2022-12-26T11:15:05.131Z,1000.42
2022-12-26T11:16:05.147Z,1000.30
2022-12-26T11:17:05.211Z,1000.34
2022-12-26T11:18:05.102Z,1000.38
2022-12-26T11:19:05.101Z,1000.28
2022-12-26T11:20:05.112Z,1000.27
2022-12-26T11:21:09.435Z,1000.27
2022-12-26T11:22:06.083Z,1000.32
2022-12-26T11:23:05.026Z,1000.43
2022-12-26T11:24:05.034Z,1000.48
2022-12-26T11:25:05.037Z,1000.49
2022-12-26T11:26:05.125Z,1000.51
2022-12-26T11:27:09.473Z,1000.33
2022-12-26T11:28:05.985Z,1000.54
2022-12-26T11:29:04.982Z,1000.48
2022-12-26T11:30:04.991Z,1000.58
2022-12-26T11:31:04.994Z,1000.51
2022-12-26T11:32:04.982Z,1000.49
2022-12-26T11:33:09.979Z,1000.57
2022-12-26T11:34:05.950Z,1000.52
2022-12-26T11:35:04.985Z,1000.52
2022-12-26T11:36:04.888Z,1000.58
2022-12-26T11:37:04.869Z,1000.52
2022-12-26T11:38:04.872Z,1000.51
2022-12-26T11:39:04.865Z,1000.52
2022-12-26T11:40:04.885Z,1000.53
2022-12-26T11:41:04.867Z,1000.57
2022-12-26T11:42:04.915Z,1000.46
2022-12-26T11:43:04.855Z,1000.52
2022-12-26T11:44:04.814Z,1000.52
2022-12-26T11:45:04.887Z,1000.50
2022-12-26T11:46:04.826Z,1000.47
2022-12-26T11:47:04.779Z,1000.53
2022-12-26T11:48:04.757Z,1000.49
2022-12-26T11:49:04.747Z,1000.52
2022-12-26T11:50:04.752Z,1000.50
2022-12-26T11:51:04.735Z,1000.58
2022-12-26T11:52:04.757Z,1000.49
2022-12-26T11:53:04.741Z,1000.52
2022-12-26T11:54:04.700Z,1000.48
2022-12-26T11:55:04.679Z,1000.49
2022-12-26T11:56:04.692Z,1000.46
2022-12-26T11:57:05.630Z,1000.52
2022-12-26T11:58:04.659Z,1000.61
2022-12-26T11:59:04.629Z,1000.50
2022-12-26T12:00:04.632Z,1000.47
2022-12-26T12:01:04.621Z,1000.45
2022-12-26T12:02:04.735Z,1000.43
2022-12-26T12:03:04.584Z,1000.45
2022-12-26T12:04:04.580Z,1000.52
2022-12-26T12:05:04.535Z,1000.51
2022-12-26T12:06:04.565Z,1000.48
2022-12-26T12:07:04.561Z,1000.41
2022-12-26T12:08:04.508Z,1000.54
2022-12-26T12:09:06.217Z,1000.43
2022-12-26T12:10:04.485Z,1000.51
2022-12-26T12:11:04.527Z,1000.50
2022-12-26T12:12:04.466Z,1000.51
2022-12-26T12:13:04.625Z,1000.47
2022-12-26T12:14:04.477Z,1000.42
2022-12-26T12:15:04.442Z,1000.50
2022-12-26T12:16:04.485Z,1000.43
2022-12-26T12:17:04.446Z,1000.43
2022-12-26T12:18:04.396Z,1000.41
2022-12-26T12:19:04.399Z,1000.32
2022-12-26T12:20:04.373Z,1000.42
2022-12-26T12:21:04.393Z,1000.36
2022-12-26T12:22:04.364Z,1000.32
2022-12-26T12:23:04.372Z,1000.31
2022-12-26T12:24:04.353Z,1000.30
2022-12-26T12:25:04.323Z,1000.31